sensor_id;sensor_type;location;lat;lon;timestamp;pressure;altitude;pressure_sealevel;temperature;humidity
60373;BME280;46216;52.220;5.134;2023-08-20T00:00:33;102249.66;;;19.52;100.00
60373;BME280;46216;52.220;5.134;2023-08-20T00:03:12;102262.34;;;19.52;100.00
60373;BME280;46216;52.220;5.134;2023-08-20T00:05:38;102261.63;;;19.50;100.00
60373;BME280;46216;52.220;5.134;2023-08-20T00:08:04;102266.03;;;19.51;100.00
60373;BME280;46216;52.220;5.134;2023-08-20T00:10:30;102265.88;;;19.52;100.00
60373;BME280;46216;52.220;5.134;2023-08-20T00:12:55;102262.22;;;19.53;100.00
60373;BME280;46216;52.220;5.134;2023-08-20T00:15:20;102256.91;;;19.52;100.00
60373;BME280;46216;52.220;5.134;2023-08-20T00:17:54;102266.03;;;19.51;100.00
60373;BME280;46216;52.220;5.134;2023-08-20T00:20:23;102261.63;;;19.50;100.00
60373;BME280;46216;52.220;5.134;2023-08-20T00:22:49;102267.16;;;19.48;100.00
60373;BME280;46216;52.220;5.134;2023-08-20T00:25:16;102270.97;;;19.46;100.00
60373;BME280;46216;52.220;5.134;2023-08-20T00:27:42;102275.53;;;19.45;100.00
60373;BME280;46216;52.220;5.134;2023-08-20T00:30:09;102280.09;;;19.45;100.00
60373;BME280;46216;52.220;5.134;2023-08-20T00:32:36;102289.63;;;19.49;100.00
60373;BME280;46216;52.220;5.134;2023-08-20T00:35:02;102292.34;;;19.49;100.00
60373;BME280;46216;52.220;5.134;2023-08-20T00:37:28;102295.78;;;19.51;100.00
60373;BME280;46216;52.220;5.134;2023-08-20T00:39:54;102289.53;;;19.50;100.00
60373;BME280;46216;52.220;5.134;2023-08-20T00:42:20;102281.69;;;19.47;100.00
60373;BME280;46216;52.220;5.134;2023-08-20T00:44:45;102292.50;;;19.47;100.00
60373;BME280;46216;52.220;5.134;2023-08-20T00:47:12;102299.03;;;19.45;100.00
60373;BME280;46216;52.220;5.134;2023-08-20T00:49:38;102290.16;;;19.43;100.00
60373;BME280;46216;52.220;5.134;2023-08-20T00:52:10;102287.75;;;19.40;100.00
60373;BME280;46216;52.220;5.134;2023-08-20T00:54:41;102296.00;;;19.38;100.00
60373;BME280;46216;52.220;5.134;2023-08-20T00:57:13;102297.97;;;19.36;100.00
60373;BME280;46216;52.220;5.134;2023-08-20T00:59:38;102307.06;;;19.35;100.00
60373;BME280;46216;52.220;5.134;2023-08-20T01:02:04;102300.81;;;19.34;100.00
60373;BME280;46216;52.220;5.134;2023-08-20T01:04:30;102313.31;;;19.35;100.00
60373;BME280;46216;52.220;5.134;2023-08-20T01:07:15;102313.47;;;19.34;100.00
60373;BME280;46216;52.220;5.134;2023-08-20T01:09:53;102313.31;;;19.35;100.00
60373;BME280;46216;52.220;5.134;2023-08-20T01:12:23;102321.59;;;19.34;100.00
60373;BME280;46216;52.220;5.134;2023-08-20T01:14:49;102318.03;;;19.33;100.00
60373;BME280;46216;52.220;5.134;2023-08-20T01:17:15;102314.59;;;19.31;100.00
60373;BME280;46216;52.220;5.134;2023-08-20T01:19:40;102320.25;;;19.28;100.00
60373;BME280;46216;52.220;5.134;2023-08-20T01:30:26;102329.69;;;19.13;100.00
60373;BME280;46216;52.220;5.134;2023-08-20T01:32:53;102325.56;;;19.09;100.00
60373;BME280;46216;52.220;5.134;2023-08-20T01:35:19;102335.63;;;19.07;100.00
60373;BME280;46216;52.220;5.134;2023-08-20T01:37:44;102336.03;;;19.02;100.00
60373;BME280;46216;52.220;5.134;2023-08-20T01:40:10;102336.13;;;19.01;100.00
60373;BME280;46216;52.220;5.134;2023-08-20T01:42:39;102338.13;;;18.99;100.00
60373;BME280;46216;52.220;5.134;2023-08-20T01:45:06;102341.19;;;18.94;100.00
60373;BME280;46216;52.220;5.134;2023-08-20T01:47:34;102339.25;;;18.85;100.00
60373;BME280;46216;52.220;5.134;2023-08-20T01:50:00;102339.00;;;18.88;100.00
60373;BME280;46216;52.220;5.134;2023-08-20T01:52:25;102345.25;;;18.88;100.00
60373;BME280;46216;52.220;5.134;2023-08-20T01:54:51;102335.72;;;18.84;100.00
60373;BME280;46216;52.220;5.134;2023-08-20T01:57:17;102330.72;;;18.80;100.00
60373;BME280;46216;52.220;5.134;2023-08-20T01:59:43;102329.13;;;18.77;100.00
60373;BME280;46216;52.220;5.134;2023-08-20T02:02:08;102335.25;;;18.79;100.00
60373;BME280;46216;52.220;5.134;2023-08-20T02:04:34;102337.69;;;18.71;100.00
60373;BME280;46216;52.220;5.134;2023-08-20T02:06:59;102354.28;;;18.66;100.00
60373;BME280;46216;52.220;5.134;2023-08-20T02:09:25;102351.72;;;18.65;100.00
60373;BME280;46216;52.220;5.134;2023-08-20T02:11:51;102342.38;;;18.69;100.00
60373;BME280;46216;52.220;5.134;2023-08-20T02:14:17;102346.03;;;18.68;100.00
60373;BME280;46216;52.220;5.134;2023-08-20T02:16:42;102344.34;;;18.67;100.00
60373;BME280;46216;52.220;5.134;2023-08-20T02:19:08;102325.09;;;18.60;100.00
60373;BME280;46216;52.220;5.134;2023-08-20T02:21:33;102319.34;;;18.54;100.00
60373;BME280;46216;52.220;5.134;2023-08-20T02:23:59;102327.69;;;18.51;100.00
60373;BME280;46216;52.220;5.134;2023-08-20T02:26:24;102316.44;;;18.46;100.00
60373;BME280;46216;52.220;5.134;2023-08-20T02:28:49;102313.72;;;18.46;100.00
60373;BME280;46216;52.220;5.134;2023-08-20T02:31:15;102308.59;;;18.42;100.00
60373;BME280;46216;52.220;5.134;2023-08-20T02:33:40;102314.38;;;18.38;100.00
60373;BME280;46216;52.220;5.134;2023-08-20T02:36:06;102322.56;;;18.36;100.00
60373;BME280;46216;52.220;5.134;2023-08-20T02:38:31;102314.88;;;18.32;100.00
60373;BME280;46216;52.220;5.134;2023-08-20T02:40:57;102321.63;;;18.26;100.00
60373;BME280;46216;52.220;5.134;2023-08-20T02:43:23;102322.84;;;18.22;100.00
60373;BME280;46216;52.220;5.134;2023-08-20T02:45:48;102320.75;;;18.26;100.00
60373;BME280;46216;52.220;5.134;2023-08-20T02:48:14;102313.78;;;18.23;100.00
60373;BME280;46216;52.220;5.134;2023-08-20T02:50:40;102323.84;;;18.21;100.00
60373;BME280;46216;52.220;5.134;2023-08-20T02:53:06;102318.81;;;18.16;100.00
60373;BME280;46216;52.220;5.134;2023-08-20T02:55:32;102310.97;;;18.13;100.00
60373;BME280;46216;52.220;5.134;2023-08-20T02:57:58;102311.09;;;18.12;100.00
60373;BME280;46216;52.220;5.134;2023-08-20T03:00:24;102314.91;;;18.09;100.00
60373;BME280;46216;52.220;5.134;2023-08-20T03:02:49;102313.28;;;18.07;100.00
60373;BME280;46216;52.220;5.134;2023-08-20T03:05:14;102319.81;;;18.04;100.00
60373;BME280;46216;52.220;5.134;2023-08-20T03:07:40;102318.31;;;18.00;100.00
60373;BME280;46216;52.220;5.134;2023-08-20T03:10:06;102317.72;;;17.96;100.00
60373;BME280;46216;52.220;5.134;2023-08-20T03:12:31;102325.94;;;17.95;100.00
60373;BME280;46216;52.220;5.134;2023-08-20T03:14:58;102326.94;;;17.94;100.00
60373;BME280;46216;52.220;5.134;2023-08-20T03:17:23;102325.34;;;17.91;100.00
60373;BME280;46216;52.220;5.134;2023-08-20T03:19:59;102331.72;;;17.90;100.00
60373;BME280;46216;52.220;5.134;2023-08-20T03:22:26;102338.69;;;17.93;100.00
60373;BME280;46216;52.220;5.134;2023-08-20T03:24:52;102343.22;;;17.92;100.00
60373;BME280;46216;52.220;5.134;2023-08-20T03:27:18;102353.69;;;17.97;100.00
60373;BME280;46216;52.220;5.134;2023-08-20T03:29:44;102354.53;;;17.98;100.00
60373;BME280;46216;52.220;5.134;2023-08-20T03:32:10;102351.81;;;17.98;100.00
60373;BME280;46216;52.220;5.134;2023-08-20T03:34:35;102370.72;;;17.98;100.00
60373;BME280;46216;52.220;5.134;2023-08-20T03:37:01;102360.88;;;17.96;100.00
60373;BME280;46216;52.220;5.134;2023-08-20T03:39:26;102363.72;;;17.95;100.00
60373;BME280;46216;52.220;5.134;2023-08-20T03:41:52;102372.91;;;17.92;100.00
60373;BME280;46216;52.220;5.134;2023-08-20T03:44:17;102362.13;;;17.92;100.00
60373;BME280;46216;52.220;5.134;2023-08-20T03:46:43;102357.94;;;17.88;100.00
60373;BME280;46216;52.220;5.134;2023-08-20T03:49:08;102360.78;;;17.87;100.00
60373;BME280;46216;52.220;5.134;2023-08-20T03:51:34;102359.41;;;17.81;100.00
60373;BME280;46216;52.220;5.134;2023-08-20T03:53:59;102370.59;;;17.77;100.00
60373;BME280;46216;52.220;5.134;2023-08-20T03:56:24;102369.94;;;17.73;100.00
60373;BME280;46216;52.220;5.134;2023-08-20T03:58:50;102371.97;;;17.69;100.00
60373;BME280;46216;52.220;5.134;2023-08-20T04:01:15;102372.13;;;17.68;100.00
60373;BME280;46216;52.220;5.134;2023-08-20T04:03:45;102364.28;;;17.65;100.00
60373;BME280;46216;52.220;5.134;2023-08-20T04:06:11;102384.22;;;17.62;100.00
60373;BME280;46216;52.220;5.134;2023-08-20T04:08:36;102377.25;;;17.60;100.00
60373;BME280;46216;52.220;5.134;2023-08-20T04:11:01;102381.16;;;17.56;100.00
60373;BME280;46216;52.220;5.134;2023-08-20T04:13:28;102378.69;;;17.53;100.00
60373;BME280;46216;52.220;5.134;2023-08-20T04:15:54;102387.78;;;17.52;100.00
60373;BME280;46216;52.220;5.134;2023-08-20T04:18:19;102389.75;;;17.49;100.00
60373;BME280;46216;52.220;5.134;2023-08-20T04:20:44;102387.28;;;17.46;100.00
60373;BME280;46216;52.220;5.134;2023-08-20T04:23:11;102386.53;;;17.44;100.00
60373;BME280;46216;52.220;5.134;2023-08-20T04:25:36;102393.88;;;17.42;100.00
60373;BME280;46216;52.220;5.134;2023-08-20T04:28:02;102393.13;;;17.40;100.00
60373;BME280;46216;52.220;5.134;2023-08-20T04:30:27;102390.69;;;17.37;100.00
60373;BME280;46216;52.220;5.134;2023-08-20T04:32:52;102400.47;;;17.38;100.00
60373;BME280;46216;52.220;5.134;2023-08-20T04:35:18;102396.91;;;17.38;100.00
60373;BME280;46216;52.220;5.134;2023-08-20T04:37:43;102394.34;;;17.36;100.00
60373;BME280;46216;52.220;5.134;2023-08-20T04:40:09;102405.13;;;17.36;100.00
60373;BME280;46216;52.220;5.134;2023-08-20T04:42:34;102400.69;;;17.35;100.00
60373;BME280;46216;52.220;5.134;2023-08-20T04:45:00;102406.09;;;17.35;100.00
60373;BME280;46216;52.220;5.134;2023-08-20T04:47:25;102403.53;;;17.34;100.00
60373;BME280;46216;52.220;5.134;2023-08-20T04:49:50;102409.03;;;17.32;100.00
60373;BME280;46216;52.220;5.134;2023-08-20T04:52:16;102407.31;;;17.31;100.00
60373;BME280;46216;52.220;5.134;2023-08-20T04:54:41;102412.06;;;17.27;100.00
60373;BME280;46216;52.220;5.134;2023-08-20T04:57:07;102410.38;;;17.26;100.00
60373;BME280;46216;52.220;5.134;2023-08-20T04:59:33;102410.47;;;17.25;100.00
60373;BME280;46216;52.220;5.134;2023-08-20T05:01:59;102413.38;;;17.22;100.00
60373;BME280;46216;52.220;5.134;2023-08-20T05:04:24;102415.13;;;17.23;100.00
60373;BME280;46216;52.220;5.134;2023-08-20T05:06:49;102415.13;;;17.23;100.00
60373;BME280;46216;52.220;5.134;2023-08-20T05:09:15;102409.97;;;17.20;100.00
60373;BME280;46216;52.220;5.134;2023-08-20T05:11:41;102409.84;;;17.21;100.00
60373;BME280;46216;52.220;5.134;2023-08-20T05:14:07;102416.75;;;17.25;100.00
60373;BME280;46216;52.220;5.134;2023-08-20T05:16:32;102408.00;;;17.22;100.00
60373;BME280;46216;52.220;5.134;2023-08-20T05:18:58;102410.81;;;17.20;100.00
60373;BME280;46216;52.220;5.134;2023-08-20T05:21:23;102409.38;;;17.27;100.00
60373;BME280;46216;52.220;5.134;2023-08-20T05:23:48;102404.00;;;17.27;100.00
60373;BME280;46216;52.220;5.134;2023-08-20T05:26:14;102407.53;;;17.28;100.00
60373;BME280;46216;52.220;5.134;2023-08-20T05:28:40;102405.59;;;17.30;100.00
60373;BME280;46216;52.220;5.134;2023-08-20T05:31:06;102408.16;;;17.32;100.00
60373;BME280;46216;52.220;5.134;2023-08-20T05:33:31;102404.84;;;17.28;100.00
60373;BME280;46216;52.220;5.134;2023-08-20T05:35:59;102419.47;;;17.37;100.00
60373;BME280;46216;52.220;5.134;2023-08-20T05:38:24;102408.31;;;17.41;100.00
60373;BME280;46216;52.220;5.134;2023-08-20T05:40:50;102408.72;;;17.48;100.00
60373;BME280;46216;52.220;5.134;2023-08-20T05:43:15;102417.94;;;17.57;100.00
60373;BME280;46216;52.220;5.134;2023-08-20T05:45:41;102408.63;;;17.61;100.00
60373;BME280;46216;52.220;5.134;2023-08-20T05:48:06;102410.97;;;17.65;100.00
60373;BME280;46216;52.220;5.134;2023-08-20T05:50:32;102403.72;;;17.66;100.00
60373;BME280;46216;52.220;5.134;2023-08-20T05:52:57;102429.97;;;17.75;100.00
60373;BME280;46216;52.220;5.134;2023-08-20T05:55:23;102412.94;;;17.74;100.00
60373;BME280;46216;52.220;5.134;2023-08-20T05:57:48;102426.38;;;17.87;100.00
60373;BME280;46216;52.220;5.134;2023-08-20T06:00:13;102427.00;;;17.91;100.00
60373;BME280;46216;52.220;5.134;2023-08-20T06:02:40;102419.38;;;17.96;100.00
60373;BME280;46216;52.220;5.134;2023-08-20T06:05:08;102426.75;;;18.05;100.00
60373;BME280;46216;52.220;5.134;2023-08-20T06:07:34;102415.09;;;18.05;100.00
60373;BME280;46216;52.220;5.134;2023-08-20T06:09:59;102412.16;;;18.08;100.00
60373;BME280;46216;52.220;5.134;2023-08-20T06:12:26;102418.53;;;18.18;100.00
60373;BME280;46216;52.220;5.134;2023-08-20T06:14:51;102425.16;;;18.25;100.00
60373;BME280;46216;52.220;5.134;2023-08-20T06:17:17;102424.69;;;18.31;100.00
60373;BME280;46216;52.220;5.134;2023-08-20T06:19:43;102424.16;;;18.37;100.00
60373;BME280;46216;52.220;5.134;2023-08-20T06:22:12;102420.72;;;18.47;100.00
60373;BME280;46216;52.220;5.134;2023-08-20T06:24:37;102424.66;;;18.54;100.00
60373;BME280;46216;52.220;5.134;2023-08-20T06:27:02;102425.84;;;18.61;100.00
60373;BME280;46216;52.220;5.134;2023-08-20T06:29:28;102430.75;;;18.67;100.00
60373;BME280;46216;52.220;5.134;2023-08-20T06:31:54;102433.84;;;18.74;100.00
60373;BME280;46216;52.220;5.134;2023-08-20T06:34:19;102436.81;;;18.82;100.00
60373;BME280;46216;52.220;5.134;2023-08-20T06:36:45;102433.56;;;18.88;100.00
60373;BME280;46216;52.220;5.134;2023-08-20T06:39:10;102429.13;;;18.98;100.00
60373;BME280;46216;52.220;5.134;2023-08-20T06:41:36;102436.84;;;19.03;100.00
60373;BME280;46216;52.220;5.134;2023-08-20T06:44:04;102425.25;;;19.12;100.00
60373;BME280;46216;52.220;5.134;2023-08-20T06:46:30;102415.78;;;19.18;100.00
60373;BME280;46216;52.220;5.134;2023-08-20T06:48:55;102417.56;;;19.28;100.00
60373;BME280;46216;52.220;5.134;2023-08-20T06:51:26;102418.78;;;19.35;100.00
60373;BME280;46216;52.220;5.134;2023-08-20T06:53:55;102419.00;;;19.44;100.00
60373;BME280;46216;52.220;5.134;2023-08-20T06:56:24;102421.28;;;19.48;100.00
60373;BME280;46216;52.220;5.134;2023-08-20T06:58:50;102430.59;;;19.55;100.00
60373;BME280;46216;52.220;5.134;2023-08-20T07:01:15;102423.91;;;19.59;100.00
60373;BME280;46216;52.220;5.134;2023-08-20T07:03:42;102418.75;;;19.68;100.00
60373;BME280;46216;52.220;5.134;2023-08-20T07:06:09;102423.66;;;19.74;100.00
60373;BME280;46216;52.220;5.134;2023-08-20T07:08:36;102420.38;;;19.80;100.00
60373;BME280;46216;52.220;5.134;2023-08-20T07:11:02;102429.50;;;19.79;100.00
60373;BME280;46216;52.220;5.134;2023-08-20T07:13:28;102434.38;;;19.85;100.00
60373;BME280;46216;52.220;5.134;2023-08-20T07:15:54;102437.94;;;19.85;100.00
60373;BME280;46216;52.220;5.134;2023-08-20T07:18:19;102439.13;;;19.93;100.00
60373;BME280;46216;52.220;5.134;2023-08-20T07:20:45;102444.59;;;20.02;100.00
60373;BME280;46216;52.220;5.134;2023-08-20T07:23:11;102449.59;;;20.07;100.00
60373;BME280;46216;52.220;5.134;2023-08-20T07:25:40;102447.34;;;20.12;100.00
60373;BME280;46216;52.220;5.134;2023-08-20T07:28:07;102454.22;;;20.16;100.00
60373;BME280;46216;52.220;5.134;2023-08-20T07:30:34;102453.09;;;20.19;100.00
60373;BME280;46216;52.220;5.134;2023-08-20T07:32:59;102444.97;;;20.19;100.00
60373;BME280;46216;52.220;5.134;2023-08-20T07:35:26;102457.81;;;20.26;100.00
60373;BME280;46216;52.220;5.134;2023-08-20T07:37:51;102451.13;;;20.30;100.00
60373;BME280;46216;52.220;5.134;2023-08-20T07:40:17;102448.44;;;20.30;100.00
60373;BME280;46216;52.220;5.134;2023-08-20T07:42:43;102453.44;;;20.35;100.00
60373;BME280;46216;52.220;5.134;2023-08-20T07:45:09;102463.59;;;20.43;100.00
60373;BME280;46216;52.220;5.134;2023-08-20T07:47:38;102455.19;;;20.46;100.00
60373;BME280;46216;52.220;5.134;2023-08-20T07:50:04;102456.91;;;20.47;100.00
60373;BME280;46216;52.220;5.134;2023-08-20T07:52:32;102460.22;;;20.50;100.00
60373;BME280;46216;52.220;5.134;2023-08-20T07:54:58;102458.94;;;20.54;100.00
60373;BME280;46216;52.220;5.134;2023-08-20T07:57:23;102462.13;;;20.60;100.00
60373;BME280;46216;52.220;5.134;2023-08-20T07:59:49;102462.69;;;20.63;100.00
60373;BME280;46216;52.220;5.134;2023-08-20T08:02:15;102461.56;;;20.66;100.00
60373;BME280;46216;52.220;5.134;2023-08-20T08:04:41;102467.31;;;20.72;100.00
60373;BME280;46216;52.220;5.134;2023-08-20T08:07:07;102466.41;;;20.72;100.00
60373;BME280;46216;52.220;5.134;2023-08-20T08:09:32;102465.28;;;20.74;100.00
60373;BME280;46216;52.220;5.134;2023-08-20T08:11:58;102470.44;;;20.77;100.00
60373;BME280;46216;52.220;5.134;2023-08-20T08:14:25;102471.00;;;20.81;100.00
60373;BME280;46216;52.220;5.134;2023-08-20T08:16:50;102477.75;;;20.87;100.00
60373;BME280;46216;52.220;5.134;2023-08-20T08:19:16;102475.34;;;20.93;100.00
60373;BME280;46216;52.220;5.134;2023-08-20T08:21:43;102471.06;;;21.00;100.00
60373;BME280;46216;52.220;5.134;2023-08-20T08:24:10;102480.34;;;21.08;100.00
60373;BME280;46216;52.220;5.134;2023-08-20T08:26:35;102480.06;;;21.11;100.00
60373;BME280;46216;52.220;5.134;2023-08-20T08:29:02;102471.66;;;21.14;100.00
60373;BME280;46216;52.220;5.134;2023-08-20T08:31:27;102465.94;;;21.17;100.00
60373;BME280;46216;52.220;5.134;2023-08-20T08:33:53;102473.66;;;21.21;100.00
60373;BME280;46216;52.220;5.134;2023-08-20T08:36:18;102473.78;;;21.30;100.00
60373;BME280;46216;52.220;5.134;2023-08-20T08:38:44;102479.09;;;21.31;100.00
60373;BME280;46216;52.220;5.134;2023-08-20T08:41:12;102475.38;;;21.32;100.00
60373;BME280;46216;52.220;5.134;2023-08-20T08:43:40;102464.28;;;21.35;100.00
60373;BME280;46216;52.220;5.134;2023-08-20T08:46:07;102476.25;;;21.42;100.00
60373;BME280;46216;52.220;5.134;2023-08-20T08:48:34;102474.56;;;21.41;100.00
60373;BME280;46216;52.220;5.134;2023-08-20T08:51:03;102473.41;;;21.44;100.00
60373;BME280;46216;52.220;5.134;2023-08-20T08:53:29;102474.97;;;21.56;100.00
60373;BME280;46216;52.220;5.134;2023-08-20T08:55:55;102470.25;;;21.58;100.00
60373;BME280;46216;52.220;5.134;2023-08-20T08:58:24;102461.97;;;21.60;100.00
60373;BME280;46216;52.220;5.134;2023-08-20T09:00:50;102463.97;;;21.67;100.00
60373;BME280;46216;52.220;5.134;2023-08-20T09:03:15;102465.09;;;21.75;100.00
60373;BME280;46216;52.220;5.134;2023-08-20T09:05:53;102461.22;;;21.77;100.00
60373;BME280;46216;52.220;5.134;2023-08-20T09:08:26;102463.66;;;21.80;100.00
60373;BME280;46216;52.220;5.134;2023-08-20T09:10:54;102462.94;;;21.88;100.00
60373;BME280;46216;52.220;5.134;2023-08-20T09:13:24;102465.78;;;21.96;100.00
60373;BME280;46216;52.220;5.134;2023-08-20T09:15:53;102475.31;;;22.00;100.00
60373;BME280;46216;52.220;5.134;2023-08-20T09:18:19;102473.03;;;22.05;100.00
60373;BME280;46216;52.220;5.134;2023-08-20T09:20:47;102463.59;;;22.09;100.00
60373;BME280;46216;52.220;5.134;2023-08-20T09:23:13;102471.03;;;22.17;100.00
60373;BME280;46216;52.220;5.134;2023-08-20T09:25:39;102469.88;;;22.19;100.00
60373;BME280;46216;52.220;5.134;2023-08-20T09:28:05;102470.16;;;22.26;100.00
60373;BME280;46216;52.220;5.134;2023-08-20T09:30:31;102471.09;;;22.35;100.00
60373;BME280;46216;52.220;5.134;2023-08-20T09:33:04;102465.38;;;22.38;100.00
60373;BME280;46216;52.220;5.134;2023-08-20T09:35:33;102464.78;;;22.44;100.00
60373;BME280;46216;52.220;5.134;2023-08-20T09:37:59;102466.91;;;22.50;100.00
60373;BME280;46216;52.220;5.134;2023-08-20T09:40:26;102468.31;;;22.54;100.00
60373;BME280;46216;52.220;5.134;2023-08-20T09:42:53;102469.72;;;22.58;100.00
60373;BME280;46216;52.220;5.134;2023-08-20T09:45:20;102470.97;;;22.64;100.00
60373;BME280;46216;52.220;5.134;2023-08-20T09:47:48;102468.09;;;22.65;100.00
60373;BME280;46216;52.220;5.134;2023-08-20T09:50:17;102460.72;;;22.76;100.00
60373;BME280;46216;52.220;5.134;2023-08-20T09:53:04;102458.13;;;22.84;100.00
60373;BME280;46216;52.220;5.134;2023-08-20T09:55:33;102458.38;;;22.90;100.00
60373;BME280;46216;52.220;5.134;2023-08-20T09:58:02;102458.66;;;22.97;100.00
60373;BME280;46216;52.220;5.134;2023-08-20T10:00:30;102462.38;;;22.96;100.00
60373;BME280;46216;52.220;5.134;2023-08-20T10:02:56;102452.19;;;22.98;100.00
60373;BME280;46216;52.220;5.134;2023-08-20T10:05:22;102461.31;;;23.07;100.00
60373;BME280;46216;52.220;5.134;2023-08-20T10:07:49;102454.78;;;23.18;100.00
60373;BME280;46216;52.220;5.134;2023-08-20T10:10:14;102467.75;;;23.24;100.00
60373;BME280;46216;52.220;5.134;2023-08-20T10:12:41;102458.66;;;23.33;100.00
60373;BME280;46216;52.220;5.134;2023-08-20T10:15:10;102453.22;;;23.33;100.00
60373;BME280;46216;52.220;5.134;2023-08-20T10:17:37;102457.00;;;23.40;100.00
60373;BME280;46216;52.220;5.134;2023-08-20T10:20:03;102459.81;;;23.48;100.00
60373;BME280;46216;52.220;5.134;2023-08-20T10:22:39;102454.06;;;23.51;100.00
60373;BME280;46216;52.220;5.134;2023-08-20T10:25:09;102445.28;;;23.57;100.00
60373;BME280;46216;52.220;5.134;2023-08-20T10:27:37;102448.34;;;23.63;100.00
60373;BME280;46216;52.220;5.134;2023-08-20T10:30:16;102444.94;;;23.60;100.00
60373;BME280;46216;52.220;5.134;2023-08-20T10:32:48;102450.53;;;23.77;100.00
60373;BME280;46216;52.220;5.134;2023-08-20T10:35:18;102441.25;;;23.88;100.00
60373;BME280;46216;52.220;5.134;2023-08-20T10:38:05;102444.41;;;24.01;100.00
60373;BME280;46216;52.220;5.134;2023-08-20T10:40:57;102445.31;;;24.10;100.00
60373;BME280;46216;52.220;5.134;2023-08-20T10:43:46;102437.81;;;24.12;100.00
60373;BME280;46216;52.220;5.134;2023-08-20T10:46:27;102436.97;;;24.11;100.00
60373;BME280;46216;52.220;5.134;2023-08-20T10:48:59;102441.44;;;24.20;100.00
60373;BME280;46216;52.220;5.134;2023-08-20T10:51:36;102440.28;;;24.23;100.00
60373;BME280;46216;52.220;5.134;2023-08-20T11:01:46;102435.16;;;24.62;100.00
60373;BME280;46216;52.220;5.134;2023-08-20T11:04:13;102430.75;;;24.69;100.00
60373;BME280;46216;52.220;5.134;2023-08-20T11:06:38;102436.41;;;24.76;100.00
60373;BME280;46216;52.220;5.134;2023-08-20T11:09:04;102433.72;;;24.84;100.00
60373;BME280;46216;52.220;5.134;2023-08-20T11:11:30;102431.66;;;24.86;100.00
60373;BME280;46216;52.220;5.134;2023-08-20T11:13:57;102425.53;;;24.92;100.00
60373;BME280;46216;52.220;5.134;2023-08-20T11:16:22;102429.81;;;24.95;100.00
60373;BME280;46216;52.220;5.134;2023-08-20T11:18:47;102429.34;;;25.08;100.00
60373;BME280;46216;52.220;5.134;2023-08-20T11:21:13;102431.59;;;25.20;100.00
60373;BME280;46216;52.220;5.134;2023-08-20T11:23:39;102425.97;;;25.22;100.00
60373;BME280;46216;52.220;5.134;2023-08-20T11:26:07;102422.03;;;25.33;100.00
60373;BME280;46216;52.220;5.134;2023-08-20T11:28:33;102424.59;;;25.34;100.00
60373;BME280;46216;52.220;5.134;2023-08-20T11:30:58;102412.13;;;25.40;100.00
60373;BME280;46216;52.220;5.134;2023-08-20T11:33:23;102408.56;;;25.56;100.00
60373;BME280;46216;52.220;5.134;2023-08-20T11:35:50;102409.38;;;25.64;100.00
60373;BME280;46216;52.220;5.134;2023-08-20T11:38:16;102416.53;;;25.73;100.00
60373;BME280;46216;52.220;5.134;2023-08-20T11:40:44;102407.69;;;25.80;100.00
60373;BME280;46216;52.220;5.134;2023-08-20T11:43:09;102405.81;;;25.88;100.00
60373;BME280;46216;52.220;5.134;2023-08-20T11:45:44;102396.88;;;25.94;100.00
60373;BME280;46216;52.220;5.134;2023-08-20T11:48:10;102394.88;;;25.88;100.00
60373;BME280;46216;52.220;5.134;2023-08-20T11:50:35;102393.09;;;26.04;100.00
60373;BME280;46216;52.220;5.134;2023-08-20T11:53:02;102396.19;;;26.09;100.00
60373;BME280;46216;52.220;5.134;2023-08-20T11:55:29;102387.59;;;26.12;100.00
60373;BME280;46216;52.220;5.134;2023-08-20T11:57:55;102391.59;;;25.93;100.00
60373;BME280;46216;52.220;5.134;2023-08-20T12:00:25;102385.16;;;25.86;100.00
60373;BME280;46216;52.220;5.134;2023-08-20T12:02:55;102387.03;;;25.85;100.00
60373;BME280;46216;52.220;5.134;2023-08-20T12:05:21;102386.69;;;25.88;100.00
60373;BME280;46216;52.220;5.134;2023-08-20T12:08:04;102377.66;;;25.63;100.00
60373;BME280;46216;52.220;5.134;2023-08-20T12:10:30;102387.56;;;25.48;100.00
60373;BME280;46216;52.220;5.134;2023-08-20T12:12:57;102394.22;;;25.45;100.00
60373;BME280;46216;52.220;5.134;2023-08-20T12:15:24;102400.19;;;25.49;100.00
60373;BME280;46216;52.220;5.134;2023-08-20T12:18:03;102405.47;;;25.75;100.00
60373;BME280;46216;52.220;5.134;2023-08-20T12:20:33;102398.63;;;25.71;100.00
60373;BME280;46216;52.220;5.134;2023-08-20T12:23:01;102407.00;;;25.86;100.00
60373;BME280;46216;52.220;5.134;2023-08-20T12:25:29;102401.13;;;26.05;100.00
60373;BME280;46216;52.220;5.134;2023-08-20T12:27:55;102404.28;;;26.25;100.00
60373;BME280;46216;52.220;5.134;2023-08-20T12:30:21;102405.44;;;26.39;100.00
60373;BME280;46216;52.220;5.134;2023-08-20T12:32:46;102405.91;;;26.42;100.00
60373;BME280;46216;52.220;5.134;2023-08-20T12:35:12;102405.88;;;26.19;100.00
60373;BME280;46216;52.220;5.134;2023-08-20T12:37:38;102405.69;;;26.21;100.00
60373;BME280;46216;52.220;5.134;2023-08-20T12:40:04;102409.13;;;26.15;100.00
60373;BME280;46216;52.220;5.134;2023-08-20T12:42:33;102418.03;;;26.09;100.00
60373;BME280;46216;52.220;5.134;2023-08-20T12:44:58;102410.00;;;26.07;100.00
60373;BME280;46216;52.220;5.134;2023-08-20T12:47:24;102403.69;;;26.07;100.00
60373;BME280;46216;52.220;5.134;2023-08-20T12:49:49;102408.59;;;26.19;100.00
60373;BME280;46216;52.220;5.134;2023-08-20T12:52:14;102402.94;;;26.29;100.00
60373;BME280;46216;52.220;5.134;2023-08-20T12:54:40;102400.41;;;26.19;100.00